createdAt,value
2018-09-23T00:01:24.508Z,53.20
2018-09-23T00:03:53.018Z,53.30
2018-09-23T00:06:21.469Z,53.30
2018-09-23T00:08:50.068Z,53.30
2018-09-23T00:11:18.523Z,53.40
2018-09-23T00:13:46.993Z,54.00
2018-09-23T00:16:15.439Z,54.00
2018-09-23T00:18:43.890Z,53.40
2018-09-23T00:21:12.408Z,53.50
2018-09-23T00:23:40.908Z,53.50
2018-09-23T00:26:09.337Z,53.50
2018-09-23T00:28:37.800Z,53.50
2018-09-23T00:31:06.260Z,53.50
2018-09-23T00:33:34.681Z,53.50
2018-09-23T00:36:03.100Z,53.50
2018-09-23T00:38:31.500Z,53.50
2018-09-23T00:41:00.012Z,53.60
2018-09-23T00:43:28.450Z,53.50
2018-09-23T00:45:56.912Z,54.20
2018-09-23T00:48:25.358Z,53.50
2018-09-23T00:50:53.828Z,53.60
2018-09-23T00:53:22.255Z,53.60
2018-09-23T00:55:50.793Z,53.60
2018-09-23T00:58:19.488Z,53.60
2018-09-23T01:00:47.915Z,53.60
2018-09-23T01:03:16.443Z,53.60
2018-09-23T01:05:44.877Z,53.60
2018-09-23T01:08:13.312Z,53.60
2018-09-23T01:10:41.761Z,53.60
2018-09-23T01:13:10.233Z,53.60
2018-09-23T01:15:38.657Z,53.60
2018-09-23T01:18:07.130Z,53.60
2018-09-23T01:20:35.684Z,53.60
2018-09-23T01:23:04.157Z,53.60
2018-09-23T01:25:32.880Z,53.60
2018-09-23T01:28:01.309Z,53.60
2018-09-23T01:30:29.750Z,54.30
2018-09-23T01:32:58.215Z,53.70
2018-09-23T01:35:26.697Z,53.70
2018-09-23T01:37:55.145Z,53.70
2018-09-23T01:40:23.594Z,53.70
2018-09-23T01:42:52.050Z,53.70
2018-09-23T01:45:20.476Z,53.70
2018-09-23T01:47:48.963Z,54.30
2018-09-23T01:50:17.377Z,53.70
2018-09-23T01:52:45.905Z,53.70
2018-09-23T01:55:14.394Z,53.60
2018-09-23T01:57:42.859Z,53.30
2018-09-23T02:00:11.419Z,53.30
2018-09-23T02:02:39.865Z,53.60
2018-09-23T02:05:08.365Z,53.60
2018-09-23T02:07:36.822Z,53.60
2018-09-23T02:10:05.306Z,53.60
2018-09-23T02:12:33.826Z,53.70
2018-09-23T02:15:02.280Z,53.60
2018-09-23T02:17:30.735Z,53.60
2018-09-23T02:19:59.216Z,53.60
2018-09-23T02:22:27.647Z,53.60
2018-09-23T02:24:56.329Z,53.60
2018-09-23T02:27:24.747Z,53.50
2018-09-23T02:29:53.562Z,53.60
2018-09-23T02:32:22.045Z,53.60
2018-09-23T02:34:50.537Z,53.60
2018-09-23T02:37:19.005Z,53.60
2018-09-23T02:39:47.478Z,53.60
2018-09-23T02:42:15.940Z,53.60
2018-09-23T02:44:44.404Z,53.60
2018-09-23T02:47:12.866Z,53.60
2018-09-23T02:49:41.373Z,53.60
2018-09-23T02:52:09.849Z,53.60
2018-09-23T02:54:38.293Z,53.60
2018-09-23T02:57:06.945Z,53.60
2018-09-23T02:59:35.383Z,53.60
2018-09-23T03:02:03.977Z,53.60
2018-09-23T03:04:32.418Z,53.60
2018-09-23T03:07:01.002Z,53.60
2018-09-23T03:09:29.523Z,53.60
2018-09-23T03:11:58.104Z,53.60
2018-09-23T03:14:26.678Z,53.60
2018-09-23T03:16:55.170Z,53.60
2018-09-23T03:19:23.625Z,53.60
2018-09-23T03:21:52.084Z,53.60
2018-09-23T03:24:20.568Z,53.60
2018-09-23T03:26:48.989Z,53.60
2018-09-23T03:29:17.459Z,53.60
2018-09-23T03:31:45.911Z,53.60
2018-09-23T03:34:14.361Z,53.60
2018-09-23T03:36:42.822Z,53.60
2018-09-23T03:39:11.298Z,53.60
2018-09-23T03:41:39.757Z,53.60
2018-09-23T03:44:08.477Z,53.60
2018-09-23T03:46:36.949Z,53.70
2018-09-23T03:49:05.441Z,53.80
2018-09-23T03:51:33.892Z,53.90
2018-09-23T03:54:02.353Z,53.90
2018-09-23T03:56:30.786Z,53.90
2018-09-23T03:58:59.217Z,54.00
2018-09-23T04:01:27.701Z,54.00
2018-09-23T04:03:56.255Z,54.00
2018-09-23T04:06:24.691Z,53.90
2018-09-23T04:08:53.149Z,54.00
2018-09-23T04:11:21.590Z,54.00
2018-09-23T04:13:50.046Z,54.00
2018-09-23T04:16:18.492Z,54.10
2018-09-23T04:18:46.968Z,54.10
2018-09-23T04:21:15.446Z,54.10
2018-09-23T04:23:43.917Z,54.20
2018-09-23T04:26:12.384Z,54.20
2018-09-23T04:28:40.839Z,54.10
2018-09-23T04:31:09.405Z,54.20
2018-09-23T04:33:38.074Z,54.10
2018-09-23T04:36:06.524Z,54.10
2018-09-23T04:38:35.009Z,54.10
2018-09-23T04:41:03.458Z,54.10
2018-09-23T04:43:31.919Z,54.20
2018-09-23T04:46:01.112Z,54.20
2018-09-23T04:48:29.699Z,54.20
2018-09-23T04:50:58.293Z,54.20
2018-09-23T04:53:27.384Z,54.30
2018-09-23T04:55:56.016Z,54.30
2018-09-23T04:58:24.469Z,54.50
2018-09-23T05:00:52.941Z,54.90
2018-09-23T05:03:22.089Z,54.70
2018-09-23T05:05:50.626Z,54.70
2018-09-23T05:08:19.099Z,54.70
2018-09-23T05:10:47.561Z,54.60
2018-09-23T05:13:16.090Z,54.60
2018-09-23T05:15:44.574Z,54.50
2018-09-23T05:18:13.031Z,54.50
2018-09-23T05:20:41.502Z,54.50
2018-09-23T05:23:09.963Z,54.60
2018-09-23T05:25:39.206Z,54.60
2018-09-23T05:28:07.665Z,54.60
2018-09-23T05:30:36.164Z,54.60
2018-09-23T05:33:04.622Z,54.70
2018-09-23T05:35:33.089Z,54.70
2018-09-23T05:38:01.533Z,54.70
2018-09-23T05:40:29.966Z,54.70
2018-09-23T05:42:58.478Z,54.70
2018-09-23T05:45:26.939Z,54.80
2018-09-23T05:47:55.376Z,54.70
2018-09-23T05:50:23.798Z,54.70
2018-09-23T05:52:52.243Z,54.70
2018-09-23T05:55:20.656Z,54.70
2018-09-23T05:57:49.089Z,54.70
2018-09-23T06:00:18.215Z,54.70
2018-09-23T06:02:46.653Z,54.80
2018-09-23T06:05:15.081Z,54.70
2018-09-23T06:07:43.845Z,54.70
2018-09-23T06:10:12.872Z,54.80
2018-09-23T06:12:41.385Z,54.80
2018-09-23T06:15:09.960Z,54.80
2018-09-23T06:17:38.497Z,54.80
2018-09-23T06:20:06.944Z,54.70
2018-09-23T06:22:35.395Z,54.50
2018-09-23T06:25:04.270Z,54.40
2018-09-23T06:27:32.776Z,54.50
2018-09-23T06:30:01.294Z,55.10
2018-09-23T06:32:29.729Z,55.10
2018-09-23T06:34:58.161Z,55.10
2018-09-23T06:37:26.632Z,55.20
2018-09-23T06:39:55.280Z,53.90
2018-09-23T06:42:23.736Z,54.50
2018-09-23T06:44:52.860Z,54.40
2018-09-23T06:47:21.370Z,54.40
2018-09-23T06:49:49.858Z,54.10
2018-09-23T06:52:18.418Z,54.30
2018-09-23T06:54:46.922Z,54.20
2018-09-23T06:57:15.466Z,54.10
2018-09-23T06:59:43.931Z,54.00
2018-09-23T07:02:12.376Z,54.00
2018-09-23T07:04:40.893Z,53.90
2018-09-23T07:07:09.177Z,54.10
2018-09-23T07:09:37.755Z,54.20
2018-09-23T07:12:06.142Z,54.20
2018-09-23T07:14:34.536Z,54.10
2018-09-23T07:17:02.886Z,54.00
2018-09-23T07:19:31.306Z,54.10
2018-09-23T07:21:59.753Z,54.00
2018-09-23T07:24:28.124Z,53.90
2018-09-23T07:26:56.515Z,53.90
2018-09-23T07:29:25.238Z,53.90
2018-09-23T07:31:53.615Z,53.90
2018-09-23T07:34:21.978Z,54.20
2018-09-23T07:36:50.438Z,54.10
2018-09-23T07:39:18.811Z,54.10
2018-09-23T07:41:47.228Z,54.30
2018-09-23T07:44:15.650Z,54.10
2018-09-23T07:46:44.082Z,54.10
2018-09-23T07:49:12.514Z,54.10
2018-09-23T07:51:40.998Z,54.30
2018-09-23T07:54:09.448Z,54.40
2018-09-23T07:56:37.943Z,54.50
2018-09-23T07:59:06.541Z,54.80
2018-09-23T08:01:35.037Z,54.90
2018-09-23T08:04:03.505Z,55.00
2018-09-23T08:06:31.959Z,55.10
2018-09-23T08:09:00.470Z,55.20
2018-09-23T08:11:29.016Z,55.40
2018-09-23T08:13:57.918Z,55.40
2018-09-23T08:16:26.131Z,56.20
2018-09-23T08:18:54.642Z,56.60
2018-09-23T08:21:23.201Z,56.90
2018-09-23T08:23:51.732Z,56.70
2018-09-23T08:26:20.373Z,56.80
2018-09-23T08:28:48.850Z,56.70
2018-09-23T08:31:17.549Z,56.70
2018-09-23T08:33:46.043Z,56.40
2018-09-23T08:36:14.689Z,56.50
2018-09-23T08:38:43.310Z,56.40
2018-09-23T08:41:11.760Z,56.50
2018-09-23T08:43:40.305Z,56.90
2018-09-23T08:46:08.825Z,56.70
2018-09-23T08:48:37.270Z,56.50
2018-09-23T08:51:05.757Z,56.60
2018-09-23T08:53:34.383Z,56.50
2018-09-23T08:56:02.922Z,56.40
2018-09-23T08:58:31.720Z,56.40
2018-09-23T09:01:00.149Z,56.70
2018-09-23T09:03:28.674Z,56.70
2018-09-23T09:05:57.153Z,56.50
2018-09-23T09:08:25.597Z,56.40
2018-09-23T09:10:54.040Z,56.40
2018-09-23T09:13:22.598Z,56.50
2018-09-23T09:15:51.068Z,56.70
2018-09-23T09:18:19.606Z,56.80
2018-09-23T09:20:48.077Z,56.50
2018-09-23T09:23:16.533Z,56.40
2018-09-23T09:25:44.971Z,56.40
2018-09-23T09:28:13.515Z,56.30
2018-09-23T09:30:42.008Z,56.70
2018-09-23T09:33:10.753Z,56.70
2018-09-23T09:35:39.304Z,56.80
2018-09-23T09:38:07.820Z,56.60
2018-09-23T09:41:40.289Z,56.80
2018-09-23T09:44:09.298Z,56.50
2018-09-23T09:46:37.922Z,56.40
2018-09-23T09:49:07.551Z,56.40
2018-09-23T09:51:36.021Z,56.30
2018-09-23T09:54:04.480Z,56.30
2018-09-23T09:56:32.974Z,56.50
2018-09-23T09:59:01.677Z,56.50
2018-09-23T10:01:30.119Z,56.60
2018-09-23T10:03:58.916Z,56.90
2018-09-23T10:06:27.558Z,56.80
2018-09-23T10:08:55.991Z,56.30
2018-09-23T10:11:24.467Z,56.70
2018-09-23T10:13:53.018Z,56.90
2018-09-23T10:16:21.485Z,56.80
2018-09-23T10:18:50.187Z,57.00
2018-09-23T10:21:18.981Z,56.90
2018-09-23T10:23:47.520Z,57.00
2018-09-23T10:26:16.087Z,56.90
2018-09-23T10:28:44.537Z,56.50
2018-09-23T10:31:13.066Z,56.40
2018-09-23T10:33:41.644Z,56.30
2018-09-23T10:36:10.205Z,56.40
2018-09-23T10:38:38.881Z,56.40
2018-09-23T10:41:07.369Z,56.40
2018-09-23T10:43:35.854Z,56.40
2018-09-23T10:46:04.286Z,56.40
2018-09-23T10:48:32.800Z,56.50
2018-09-23T10:51:01.314Z,56.50
2018-09-23T10:53:29.837Z,56.70
2018-09-23T10:55:58.480Z,56.70
2018-09-23T10:58:26.966Z,56.80
2018-09-23T11:00:55.430Z,56.90
2018-09-23T11:03:23.908Z,56.40
2018-09-23T11:05:52.372Z,56.30
2018-09-23T11:08:20.802Z,56.40
2018-09-23T11:10:49.354Z,56.40
2018-09-23T11:13:18.841Z,56.70
2018-09-23T11:15:47.584Z,56.60
2018-09-23T11:18:16.182Z,56.70
2018-09-23T11:20:44.859Z,56.50
2018-09-23T11:23:13.345Z,56.60
2018-09-23T11:25:41.771Z,56.70
2018-09-23T11:28:10.196Z,56.80
2018-09-23T11:30:38.638Z,56.90
2018-09-23T11:33:07.087Z,57.10
2018-09-23T11:35:35.513Z,57.00
2018-09-23T11:38:03.990Z,57.00
2018-09-23T11:40:32.462Z,57.00
2018-09-23T11:43:00.943Z,57.00
2018-09-23T11:45:29.508Z,57.00
2018-09-23T11:47:57.976Z,57.10
2018-09-23T11:50:26.420Z,57.10
2018-09-23T11:52:54.913Z,57.20
2018-09-23T11:55:23.415Z,57.20
2018-09-23T11:59:21.313Z,57.30
2018-09-23T12:01:49.845Z,57.30
2018-09-23T12:04:18.540Z,57.30
2018-09-23T12:06:47.893Z,57.30
2018-09-23T12:09:16.401Z,57.20
2018-09-23T12:11:44.818Z,57.20
2018-09-23T12:14:13.289Z,57.20
2018-09-23T12:16:41.919Z,57.40
2018-09-23T12:19:10.394Z,57.30
2018-09-23T12:21:38.982Z,57.40
2018-09-23T12:24:07.445Z,57.50
2018-09-23T12:26:35.923Z,57.40
2018-09-23T12:29:04.419Z,57.50
2018-09-23T12:31:32.944Z,57.50
2018-09-23T12:34:01.434Z,57.50
2018-09-23T12:36:29.916Z,57.50
2018-09-23T12:38:58.377Z,57.60
2018-09-23T12:41:26.821Z,57.60
2018-09-23T12:43:55.265Z,57.50
2018-09-23T12:46:23.730Z,57.50
2018-09-23T12:48:52.162Z,57.60
2018-09-23T12:51:20.580Z,57.70
2018-09-23T12:53:49.043Z,57.60
2018-09-23T12:56:17.513Z,57.60
2018-09-23T12:58:45.982Z,57.60
2018-09-23T13:01:14.462Z,57.50
2018-09-23T13:03:43.036Z,58.10
2018-09-23T13:06:11.574Z,58.20
2018-09-23T13:08:40.079Z,58.00
2018-09-23T13:11:08.544Z,57.80
2018-09-23T13:13:36.977Z,57.60
2018-09-23T13:16:05.634Z,57.50
2018-09-23T13:18:34.366Z,57.30
2018-09-23T13:21:04.129Z,57.90
2018-09-23T13:23:32.586Z,57.80
2018-09-23T13:26:01.372Z,57.60
2018-09-23T13:28:30.004Z,57.40
2018-09-23T13:30:58.976Z,57.10
2018-09-23T13:33:27.559Z,57.20
2018-09-23T13:35:56.026Z,56.90
2018-09-23T13:38:25.480Z,57.00
2018-09-23T13:40:53.954Z,56.90
2018-09-23T13:43:22.437Z,56.50
2018-09-23T13:45:51.211Z,56.60
2018-09-23T13:48:19.701Z,56.30
2018-09-23T13:50:48.395Z,56.60
2018-09-23T13:53:17.074Z,56.20
2018-09-23T13:55:45.790Z,56.00
2018-09-23T13:58:14.252Z,56.10
2018-09-23T14:00:42.718Z,56.00
2018-09-23T14:03:11.242Z,55.90
2018-09-23T14:05:39.673Z,55.90
2018-09-23T14:08:08.237Z,55.90
2018-09-23T14:10:36.691Z,55.90
2018-09-23T14:13:05.289Z,55.90
2018-09-23T14:15:33.728Z,56.10
2018-09-23T14:18:02.197Z,56.20
2018-09-23T14:20:30.756Z,56.20
2018-09-23T14:22:59.234Z,56.20
2018-09-23T14:25:27.728Z,56.20
2018-09-23T14:27:56.180Z,56.30
2018-09-23T14:30:24.735Z,56.20
2018-09-23T14:32:53.192Z,56.30
2018-09-23T14:35:21.671Z,56.30
2018-09-23T14:37:50.501Z,57.00
2018-09-23T14:40:18.925Z,56.40
2018-09-23T14:42:47.505Z,56.40
2018-09-23T14:45:16.057Z,56.40
2018-09-23T14:47:44.530Z,56.40
2018-09-23T14:50:13.034Z,56.50
2018-09-23T14:52:41.550Z,56.40
2018-09-23T14:55:10.094Z,56.50
2018-09-23T14:57:38.473Z,56.50
2018-09-23T15:00:06.999Z,56.70
2018-09-23T15:02:35.433Z,56.70
2018-09-23T15:05:04.087Z,57.40
2018-09-23T15:07:32.776Z,58.00
2018-09-23T15:10:01.230Z,58.80
2018-09-23T15:12:29.743Z,59.90
2018-09-23T15:14:58.413Z,61.60
2018-09-23T15:17:27.077Z,62.60
2018-09-23T15:19:56.690Z,63.60
2018-09-23T15:22:25.258Z,64.00
2018-09-23T15:24:53.743Z,64.40
2018-09-23T15:27:22.454Z,63.60
2018-09-23T15:29:51.140Z,62.70
2018-09-23T15:32:19.776Z,63.50
2018-09-23T15:34:48.344Z,62.70
2018-09-23T15:37:16.839Z,61.90
2018-09-23T15:39:45.524Z,62.50
2018-09-23T15:42:14.434Z,62.70
2018-09-23T15:44:42.938Z,64.00
2018-09-23T15:47:11.365Z,64.70
2018-09-23T15:49:39.849Z,64.80
2018-09-23T15:52:08.776Z,65.20
2018-09-23T15:54:37.309Z,64.30
2018-09-23T15:57:05.783Z,64.20
2018-09-23T15:59:34.430Z,63.60
2018-09-23T16:02:02.956Z,63.60
2018-09-23T16:04:31.473Z,63.00
2018-09-23T16:07:00.423Z,63.00
2018-09-23T16:09:28.885Z,63.50
2018-09-23T16:11:57.365Z,63.10
2018-09-23T16:14:25.922Z,61.70
2018-09-23T16:16:54.387Z,61.40
2018-09-23T16:19:23.003Z,61.10
2018-09-23T16:21:51.489Z,61.00
2018-09-23T16:24:20.309Z,61.40
2018-09-23T16:26:49.967Z,60.00
2018-09-23T16:29:18.516Z,60.80
2018-09-23T16:31:47.124Z,60.10
2018-09-23T16:34:15.599Z,59.50
2018-09-23T16:36:44.277Z,59.30
2018-09-23T16:39:12.716Z,58.00
2018-09-23T16:41:41.152Z,56.30
2018-09-23T16:44:09.832Z,56.10
2018-09-23T16:46:38.315Z,56.30
2018-09-23T16:49:06.785Z,55.80
2018-09-23T16:51:35.316Z,57.00
2018-09-23T16:54:03.770Z,57.10
2018-09-23T16:56:32.188Z,57.20
2018-09-23T16:59:00.991Z,57.50
2018-09-23T17:01:29.500Z,57.30
2018-09-23T17:03:57.969Z,57.60
2018-09-23T17:06:26.424Z,57.60
2018-09-23T17:08:54.851Z,57.70
2018-09-23T17:11:23.296Z,57.70
2018-09-23T17:13:51.856Z,57.80
2018-09-23T17:16:21.356Z,57.80
2018-09-23T17:18:49.851Z,57.80
2018-09-23T17:21:18.366Z,57.90
2018-09-23T17:23:46.898Z,57.90
2018-09-23T17:26:15.512Z,58.00
2018-09-23T17:28:44.044Z,58.00
2018-09-23T17:31:12.464Z,57.90
2018-09-23T17:33:40.887Z,58.60
2018-09-23T17:36:09.333Z,57.90
2018-09-23T17:38:37.951Z,58.00
2018-09-23T17:41:06.586Z,57.90
2018-09-23T17:43:35.049Z,57.80
2018-09-23T17:46:03.522Z,57.80
2018-09-23T17:48:32.040Z,57.90
2018-09-23T17:51:00.478Z,57.90
2018-09-23T17:53:28.931Z,57.90
2018-09-23T17:55:57.391Z,57.90
2018-09-23T17:58:25.882Z,58.00
2018-09-23T18:00:54.280Z,58.00
2018-09-23T18:03:22.746Z,58.20
2018-09-23T18:05:51.191Z,58.10
2018-09-23T18:08:19.697Z,58.10
2018-09-23T18:10:48.088Z,57.70
2018-09-23T18:13:16.538Z,57.90
2018-09-23T18:15:44.937Z,57.70
2018-09-23T18:18:13.349Z,57.70
2018-09-23T18:20:41.767Z,57.70
2018-09-23T18:23:10.229Z,57.80
2018-09-23T18:25:38.699Z,58.00
2018-09-23T18:28:07.325Z,57.20
2018-09-23T18:30:35.862Z,56.20
2018-09-23T18:33:04.372Z,55.40
2018-09-23T18:35:32.853Z,56.40
2018-09-23T18:38:01.295Z,56.40
2018-09-23T18:40:29.729Z,57.20
2018-09-23T18:42:58.209Z,56.80
2018-09-23T18:45:27.645Z,57.00
2018-09-23T18:47:56.650Z,57.00
2018-09-23T18:50:25.117Z,56.90
2018-09-23T18:52:58.816Z,57.00
2018-09-23T18:55:32.553Z,57.00
2018-09-23T18:58:01.441Z,57.00
2018-09-23T19:00:29.914Z,57.00
2018-09-23T19:02:58.382Z,57.00
2018-09-23T19:05:26.806Z,57.00
2018-09-23T19:07:55.336Z,57.00
2018-09-23T19:10:23.818Z,57.00
2018-09-23T19:12:57.490Z,57.00
2018-09-23T19:15:26.056Z,57.00
2018-09-23T19:17:54.477Z,57.00
2018-09-23T19:20:23.031Z,57.00
2018-09-23T19:22:56.899Z,57.00
2018-09-23T19:25:25.365Z,57.00
2018-09-23T19:27:53.822Z,56.90
2018-09-23T19:30:22.402Z,56.90
2018-09-23T19:32:51.021Z,56.90
2018-09-23T19:35:19.422Z,56.90
2018-09-23T19:37:47.978Z,56.80
2018-09-23T19:40:16.431Z,56.80
2018-09-23T19:42:45.125Z,56.80
2018-09-23T19:45:13.581Z,56.80
2018-09-23T19:47:41.980Z,56.80
2018-09-23T19:50:10.401Z,56.80
2018-09-23T19:52:38.864Z,56.80
2018-09-23T19:55:07.348Z,56.80
2018-09-23T19:57:35.831Z,56.80
2018-09-23T20:00:04.276Z,56.80
2018-09-23T20:02:32.698Z,56.80
2018-09-23T20:05:01.148Z,56.80
2018-09-23T20:07:29.619Z,56.80
2018-09-23T20:09:58.057Z,56.70
2018-09-23T20:12:26.503Z,56.70
2018-09-23T20:14:55.133Z,56.70
2018-09-23T20:17:23.580Z,56.70
2018-09-23T20:19:52.024Z,56.70
2018-09-23T20:22:20.495Z,56.60
2018-09-23T20:24:48.958Z,56.40
2018-09-23T20:27:17.444Z,56.40
2018-09-23T20:29:46.903Z,56.40
2018-09-23T20:32:15.820Z,56.40
2018-09-23T20:34:45.338Z,56.40
2018-09-23T20:37:13.814Z,56.40
2018-09-23T20:39:42.246Z,56.40
2018-09-23T20:42:10.697Z,56.40
2018-09-23T20:44:39.220Z,56.30
2018-09-23T20:47:07.714Z,56.40
2018-09-23T20:49:36.166Z,56.40
2018-09-23T20:52:04.638Z,56.30
2018-09-23T20:54:33.189Z,56.30
2018-09-23T20:57:01.654Z,56.30
2018-09-23T20:59:30.146Z,56.20
2018-09-23T21:01:58.688Z,56.20
2018-09-23T21:04:27.076Z,56.20
2018-09-23T21:06:55.567Z,56.20
2018-09-23T21:09:24.013Z,56.20
2018-09-23T21:11:52.433Z,56.20
2018-09-23T21:14:20.887Z,56.10
2018-09-23T21:16:49.318Z,56.20
2018-09-23T21:19:17.788Z,56.20
2018-09-23T21:21:46.336Z,56.20
2018-09-23T21:24:14.790Z,56.20
2018-09-23T21:26:43.229Z,56.30
2018-09-23T21:29:11.686Z,56.10
2018-09-23T21:31:40.109Z,56.10
2018-09-23T21:34:08.704Z,55.70
2018-09-23T21:36:37.161Z,55.70
2018-09-23T21:39:06.838Z,55.80
2018-09-23T21:41:35.205Z,56.00
2018-09-23T21:44:03.652Z,56.10
2018-09-23T21:46:32.054Z,56.10
2018-09-23T21:49:00.437Z,56.10
2018-09-23T21:51:28.815Z,56.20
2018-09-23T21:53:57.224Z,56.20
2018-09-23T21:56:25.672Z,56.20
2018-09-23T21:58:54.153Z,56.20
2018-09-23T22:01:22.629Z,56.20
2018-09-23T22:03:51.133Z,56.20
2018-09-23T22:06:19.569Z,56.20
2018-09-23T22:08:48.014Z,56.10
2018-09-23T22:11:16.463Z,56.20
2018-09-23T22:13:44.934Z,56.20
2018-09-23T22:16:13.373Z,56.20
2018-09-23T22:18:42.026Z,56.10
2018-09-23T22:21:10.511Z,56.10
2018-09-23T22:23:38.952Z,56.10
2018-09-23T22:26:07.453Z,56.10
2018-09-23T22:28:36.304Z,56.20
2018-09-23T22:31:04.837Z,56.10
2018-09-23T22:33:33.305Z,56.10
2018-09-23T22:36:02.047Z,56.10
2018-09-23T22:38:30.486Z,56.10
2018-09-23T22:40:58.925Z,56.00
2018-09-23T22:43:27.398Z,56.10
2018-09-23T22:45:55.909Z,56.00
2018-09-23T22:48:24.392Z,56.00
2018-09-23T22:50:52.882Z,56.00
2018-09-23T22:53:21.348Z,56.00
2018-09-23T22:55:49.810Z,55.90
2018-09-23T22:58:18.281Z,56.00
2018-09-23T23:00:46.760Z,55.90
2018-09-23T23:03:15.221Z,55.90
2018-09-23T23:05:43.685Z,55.90
2018-09-23T23:08:12.196Z,55.90
2018-09-23T23:10:40.694Z,55.90
2018-09-23T23:13:09.193Z,55.90
2018-09-23T23:15:37.703Z,55.90
2018-09-23T23:18:06.206Z,55.90
2018-09-23T23:20:34.681Z,55.80
2018-09-23T23:23:03.177Z,55.90
2018-09-23T23:25:31.644Z,55.80
2018-09-23T23:28:00.134Z,55.90
2018-09-23T23:30:28.584Z,55.90
2018-09-23T23:32:57.023Z,55.90
2018-09-23T23:35:25.501Z,55.80
2018-09-23T23:37:54.016Z,55.80
2018-09-23T23:40:22.460Z,55.80
2018-09-23T23:42:50.930Z,55.80
2018-09-23T23:45:19.350Z,55.80
2018-09-23T23:47:47.837Z,55.70
2018-09-23T23:50:16.285Z,55.70
2018-09-23T23:52:44.713Z,55.70
2018-09-23T23:55:13.175Z,55.80
2018-09-23T23:57:41.645Z,55.70
